Terminal Aerodrome Forecast
Issued by NWS

Home | Current Version | Previous Version | Text Only | Print | Product List | Glossary On
Versions: 1 2 3 4 5 6 7 8 9 10 11 12 13 14 15 16 17 18 19 20 21 22
000
FTUS41 KBTV 241942 AAA
TAFMSS
TAF AMD
KMSS 241942Z 2420/2518 33010KT P6SM SCT030
      TEMPO 2420/2424 OVC030
     FM250800 07009KT P6SM OVC100
     FM251100 07010KT 5SM -PL BR OVC060
     FM251300 08011KT 2SM -PL BR OVC030
     FM251600 09011KT 2SM -RA BR OVC015=

USA.gov is the U.S. government's official web portal to all federal, state and local government web resources and services.